Time;durP1;ratioP1;P1;durP2;ratioP2;P2;SDS_P1;SDS_P2;PMS_P1;PMS_P2;Temp;Humidity;BMP_temperature;BMP_pressure;BME280_temperature;BME280_humidity;BME280_pressure;Samples;Min_cycle;Max_cycle;Signal;HPM_P1;HPM_P2
2023/09/28 00:00:35;;;;;;;10.18;8.50;;;;;;;-148.88;100.00;-17125.47;5032170;28;20025;-75
2023/09/28 00:02:46;;;;;;;11.82;9.00;;;;;;;-148.88;100.00;-17125.47;5031945;28;20524;-74
2023/09/28 00:05:13;;;;;;;9.32;8.27;;;;;;;-148.88;100.00;-17125.47;5031992;28;20025;-74
2023/09/28 00:07:40;;;;;;;10.40;8.43;;;;;;;-148.88;100.00;-17125.47;5032114;28;20156;-74
2023/09/28 00:10:08;;;;;;;9.50;8.50;;;;;;;-148.88;100.00;-17125.47;5030668;28;20037;-74
2023/09/28 00:12:33;;;;;;;10.20;8.98;;;;;;;-148.88;100.00;-17125.47;5032074;28;20033;-74
2023/09/28 00:14:59;;;;;;;9.23;7.95;;;;;;;-148.88;100.00;-17125.47;5032050;28;20589;-74
2023/09/28 00:17:24;;;;;;;8.68;7.78;;;;;;;-148.88;100.00;-17125.47;5031886;28;20030;-74
2023/09/28 00:19:50;;;;;;;8.35;6.93;;;;;;;-148.88;100.00;-17125.47;5030556;28;20477;-75
2023/09/28 00:22:15;;;;;;;7.82;6.65;;;;;;;-148.88;100.00;-17125.47;5031742;28;20056;-74
2023/09/28 00:24:42;;;;;;;9.10;6.72;;;;;;;-148.88;100.00;-17125.47;5032238;28;20386;-74
2023/09/28 00:27:08;;;;;;;7.13;6.43;;;;;;;-148.88;100.00;-17125.47;5030392;28;20029;-74
2023/09/28 00:29:33;;;;;;;8.20;6.75;;;;;;;-148.88;100.00;-17125.47;5031984;28;20077;-74
2023/09/28 00:31:58;;;;;;;6.93;6.22;;;;;;;-148.88;100.00;-17125.47;5031834;28;20025;-75
2023/09/28 00:34:24;;;;;;;8.98;6.10;;;;;;;-148.88;100.00;-17125.47;5031687;28;20041;-75
2023/09/28 00:36:49;;;;;;;6.78;6.07;;;;;;;-148.88;100.00;-17125.47;5031906;28;20029;-74
2023/09/28 00:39:14;;;;;;;7.03;6.30;;;;;;;-148.88;100.00;-17125.47;5031844;28;20036;-74
2023/09/28 00:41:40;;;;;;;6.57;5.75;;;;;;;-148.88;100.00;-17125.47;5031711;28;20025;-74
2023/09/28 00:44:05;;;;;;;6.78;5.38;;;;;;;-148.88;100.00;-17125.47;5032671;28;20029;-74
2023/09/28 00:46:35;;;;;;;6.60;5.57;;;;;;;-148.88;100.00;-17125.47;5035593;28;20028;-75
2023/09/28 00:49:05;;;;;;;7.10;5.50;;;;;;;-148.88;100.00;-17125.47;5035612;28;20465;-75
2023/09/28 00:51:33;;;;;;;8.73;5.50;;;;;;;-148.88;100.00;-17125.47;5034804;28;20029;-74
2023/09/28 00:54:00;;;;;;;8.27;5.35;;;;;;;-148.88;100.00;-17125.47;5035678;28;20481;-75
2023/09/28 00:56:26;;;;;;;6.80;5.30;;;;;;;-148.88;100.00;-17125.47;5035456;28;20037;-74
2023/09/28 00:58:54;;;;;;;7.60;5.35;;;;;;;-148.88;100.00;-17125.47;5035453;28;20026;-74
2023/09/28 01:01:20;;;;;;;6.90;5.70;;;;;;;-148.88;100.00;-17125.47;5035433;28;20168;-74
2023/09/28 01:03:46;;;;;;;7.95;5.68;;;;;;;-148.88;100.00;-17125.47;5035418;28;20511;-74
2023/09/28 01:06:12;;;;;;;6.40;5.75;;;;;;;-148.88;100.00;-17125.47;5035302;28;20025;-75
2023/09/28 01:08:38;;;;;;;6.63;5.07;;;;;;;-148.88;100.00;-17125.47;5035131;28;20036;-74
2023/09/28 01:11:03;;;;;;;7.75;5.50;;;;;;;-148.88;100.00;-17125.47;5035464;28;20373;-74
2023/09/28 01:13:29;;;;;;;7.47;5.25;;;;;;;-148.88;100.00;-17125.47;5033877;28;20041;-74
2023/09/28 01:15:54;;;;;;;7.57;5.32;;;;;;;-148.88;100.00;-17125.47;5033480;28;20111;-74
2023/09/28 01:18:22;;;;;;;7.53;5.60;;;;;;;-148.88;100.00;-17125.47;5035064;28;20460;-74
2023/09/28 01:20:49;;;;;;;6.55;5.43;;;;;;;-148.88;100.00;-17125.47;5035006;28;20420;-74
2023/09/28 01:23:14;;;;;;;6.13;5.43;;;;;;;-148.88;100.00;-17125.47;5034828;28;20106;-74
2023/09/28 01:25:40;;;;;;;6.72;5.30;;;;;;;-148.88;100.00;-17125.47;5033416;28;20088;-74
2023/09/28 01:28:07;;;;;;;6.40;5.35;;;;;;;-148.88;100.00;-17125.47;5034710;28;20026;-74
2023/09/28 01:30:33;;;;;;;7.07;5.22;;;;;;;-148.88;100.00;-17125.47;5034961;28;20022;-74
2023/09/28 01:32:58;;;;;;;5.72;5.13;;;;;;;-148.88;100.00;-17125.47;5034915;28;20026;-74
2023/09/28 01:35:24;;;;;;;7.05;5.53;;;;;;;-148.88;100.00;-17125.47;5034661;28;20091;-74
2023/09/28 01:38:10;;;;;;;6.93;5.53;;;;;;;-148.88;100.00;-17125.47;5034804;28;20013;-74
2023/09/28 01:40:38;;;;;;;6.70;5.47;;;;;;;-148.88;100.00;-17125.47;5020686;28;20045;-74
2023/09/28 01:43:04;;;;;;;6.38;5.00;;;;;;;-148.88;100.00;-17125.47;5034694;28;20025;-74
2023/09/28 01:45:30;;;;;;;5.70;5.10;;;;;;;-148.88;100.00;-17125.47;5034695;28;20473;-73
2023/09/28 01:47:55;;;;;;;5.90;5.15;;;;;;;-148.88;100.00;-17125.47;5033084;28;20060;-74
2023/09/28 01:50:21;;;;;;;6.15;4.93;;;;;;;-148.88;100.00;-17125.47;5034298;28;20489;-73
2023/09/28 01:52:46;;;;;;;5.47;4.88;;;;;;;-148.88;100.00;-17125.47;5034216;28;20104;-74
2023/09/28 01:55:12;;;;;;;7.03;5.10;;;;;;;-148.88;100.00;-17125.47;5033425;28;20354;-74
2023/09/28 01:57:37;;;;;;;6.85;4.70;;;;;;;-148.88;100.00;-17125.47;5034157;28;20026;-74
2023/09/28 02:00:20;;;;;;;5.78;4.78;;;;;;;-148.88;100.00;-17125.47;5034270;28;20394;-74
2023/09/28 02:02:46;;;;;;;6.53;5.25;;;;;;;-148.88;100.00;-17125.47;5034507;28;20033;-73
2023/09/28 02:05:16;;;;;;;6.15;5.15;;;;;;;-148.88;100.00;-17125.47;5034204;28;20032;-73
2023/09/28 02:07:42;;;;;;;7.50;6.25;;;;;;;-148.88;100.00;-17125.47;5034355;28;20076;-74
2023/09/28 02:10:09;;;;;;;8.50;5.50;;;;;;;-148.88;100.00;-17125.47;5034043;28;20548;-74
2023/09/28 02:12:38;;;;;;;6.85;6.15;;;;;;;-148.88;100.00;-17125.47;5034014;28;20056;-74
2023/09/28 02:15:04;;;;;;;6.47;5.78;;;;;;;-148.88;100.00;-17125.47;5032543;28;20060;-74
2023/09/28 02:17:30;;;;;;;10.45;6.15;;;;;;;-148.88;100.00;-17125.47;5033809;28;20070;-74
2023/09/28 02:19:56;;;;;;;6.65;5.90;;;;;;;-148.88;100.00;-17125.47;5033788;28;20490;-74
2023/09/28 02:22:22;;;;;;;8.32;5.82;;;;;;;-148.88;100.00;-17125.47;5033620;28;20028;-74
2023/09/28 02:24:47;;;;;;;6.53;5.72;;;;;;;-148.88;100.00;-17125.47;5033411;28;20026;-74
2023/09/28 02:27:13;;;;;;;6.57;5.55;;;;;;;-148.88;100.00;-17125.47;5033204;28;20386;-74
2023/09/28 02:29:38;;;;;;;6.20;5.60;;;;;;;-148.88;100.00;-17125.47;5033281;28;20026;-74
2023/09/28 02:32:04;;;;;;;8.93;5.80;;;;;;;-148.88;100.00;-17125.47;5033471;28;20446;-74
2023/09/28 02:34:33;;;;;;;8.10;6.13;;;;;;;-148.88;100.00;-17125.47;5033304;28;20018;-74
2023/09/28 02:36:59;;;;;;;7.22;5.65;;;;;;;-148.88;100.00;-17125.47;5033106;28;20032;-74
2023/09/28 02:39:24;;;;;;;6.65;5.38;;;;;;;-148.88;100.00;-17125.47;5033177;28;20017;-74
2023/09/28 02:41:50;;;;;;;7.50;4.97;;;;;;;-148.88;100.00;-17125.47;5033024;28;20362;-74
2023/09/28 02:44:15;;;;;;;5.95;5.03;;;;;;;-148.88;100.00;-17125.47;5032977;28;20485;-74
2023/09/28 02:46:40;;;;;;;7.50;5.32;;;;;;;-148.88;100.00;-17125.47;5032944;28;20022;-74
2023/09/28 02:49:06;;;;;;;6.13;5.15;;;;;;;-148.88;100.00;-17125.47;5032881;28;20048;-74
2023/09/28 02:51:31;;;;;;;6.47;4.68;;;;;;;-148.88;100.00;-17125.47;5032910;28;20104;-74
2023/09/28 02:53:58;;;;;;;7.68;5.85;;;;;;;-148.88;100.00;-17125.47;5033085;28;20060;-74
2023/09/28 02:56:23;;;;;;;6.70;5.85;;;;;;;-148.88;100.00;-17125.47;5032908;28;20026;-74
2023/09/28 02:58:49;;;;;;;7.15;5.70;;;;;;;-148.88;100.00;-17125.47;5031619;28;20021;-73
2023/09/28 03:01:14;;;;;;;8.90;6.47;;;;;;;-148.88;100.00;-17125.47;5031731;28;20056;-76
2023/09/28 03:03:40;;;;;;;6.28;5.53;;;;;;;-148.88;100.00;-17125.47;5032920;28;20032;-74
2023/09/28 03:06:06;;;;;;;7.07;5.60;;;;;;;-148.88;100.00;-17125.47;5032870;28;20032;-74
2023/09/28 03:08:31;;;;;;;6.32;5.57;;;;;;;-148.88;100.00;-17125.47;5031087;28;20415;-74
2023/09/28 03:10:58;;;;;;;7.43;5.63;;;;;;;-148.88;100.00;-17125.47;5032561;28;20207;-74
2023/09/28 03:13:25;;;;;;;6.82;5.68;;;;;;;-148.88;100.00;-17125.47;5031090;28;20437;-74
2023/09/28 03:15:50;;;;;;;7.25;5.65;;;;;;;-148.88;100.00;-17125.47;5032636;28;20051;-73
2023/09/28 03:18:16;;;;;;;7.43;5.70;;;;;;;-148.88;100.00;-17125.47;5032597;28;20458;-73
2023/09/28 03:20:45;;;;;;;7.97;6.07;;;;;;;-148.88;100.00;-17125.47;5032386;28;20455;-74
2023/09/28 03:23:13;;;;;;;6.65;5.82;;;;;;;-148.88;100.00;-17125.47;5032623;28;20474;-73
2023/09/28 03:25:39;;;;;;;6.95;6.22;;;;;;;-148.88;100.00;-17125.47;5032279;28;20029;-74
2023/09/28 03:28:04;;;;;;;6.97;5.80;;;;;;;-148.88;100.00;-17125.47;5032208;28;20087;-73
2023/09/28 03:30:31;;;;;;;9.45;6.40;;;;;;;-148.88;100.00;-17125.47;5032158;28;20128;-75
2023/09/28 03:32:56;;;;;;;6.90;5.82;;;;;;;-148.88;100.00;-17125.47;5032115;28;20064;-74
2023/09/28 03:35:22;;;;;;;6.80;5.65;;;;;;;-148.88;100.00;-17125.47;5032290;28;20401;-74
2023/09/28 03:37:53;;;;;;;8.02;6.03;;;;;;;-148.88;100.00;-17125.47;5030755;28;20093;-74
2023/09/28 03:40:19;;;;;;;8.23;6.05;;;;;;;-148.88;100.00;-17125.47;5032111;28;20052;-75
2023/09/28 03:42:49;;;;;;;7.35;5.70;;;;;;;-148.88;100.00;-17125.47;5030576;28;20033;-75
2023/09/28 03:45:20;;;;;;;6.65;5.82;;;;;;;-148.88;100.00;-17125.47;5032465;28;20025;-74
2023/09/28 03:47:45;;;;;;;6.35;5.72;;;;;;;-148.88;100.00;-17125.47;5031883;28;20028;-75
2023/09/28 03:50:12;;;;;;;7.22;5.38;;;;;;;-148.88;100.00;-17125.47;5032005;28;20025;-76
2023/09/28 03:52:38;;;;;;;6.95;5.55;;;;;;;-148.88;100.00;-17125.47;5031957;28;20539;-75
2023/09/28 03:55:12;;;;;;;6.10;5.47;;;;;;;-148.88;100.00;-17125.47;5033363;28;20091;-76
2023/09/28 03:57:38;;;;;;;7.97;5.70;;;;;;;-148.88;100.00;-17125.47;5031998;28;20538;-76
2023/09/28 04:00:06;;;;;;;7.10;5.30;;;;;;;-148.88;100.00;-17125.47;5031933;28;20085;-75
2023/09/28 04:02:32;;;;;;;6.18;5.20;;;;;;;-148.88;100.00;-17125.47;5030315;28;20466;-75
2023/09/28 04:04:58;;;;;;;5.75;4.68;;;;;;;-148.88;100.00;-17125.47;5031913;28;20095;-75
2023/09/28 04:07:23;;;;;;;7.88;4.75;;;;;;;-148.88;100.00;-17125.47;5031731;28;20069;-74
2023/09/28 04:09:49;;;;;;;7.25;5.13;;;;;;;-148.88;100.00;-17125.47;5031622;28;20029;-74
2023/09/28 04:12:15;;;;;;;9.10;5.57;;;;;;;-148.88;100.00;-17125.47;5031737;28;20021;-75
2023/09/28 04:14:40;;;;;;;6.72;4.55;;;;;;;-148.88;100.00;-17125.47;5032338;28;20030;-74
2023/09/28 04:17:05;;;;;;;9.50;5.40;;;;;;;-148.88;100.00;-17125.47;5031531;28;20103;-75
2023/09/28 04:19:31;;;;;;;6.78;4.88;;;;;;;-148.88;100.00;-17125.47;5033422;28;20029;-75
2023/09/28 04:21:57;;;;;;;5.60;4.88;;;;;;;-148.88;100.00;-17125.47;5035641;28;20401;-75
2023/09/28 04:24:22;;;;;;;5.30;4.45;;;;;;;-148.88;100.00;-17125.47;5034192;28;20021;-75
2023/09/28 04:26:47;;;;;;;6.05;4.30;;;;;;;-148.88;100.00;-17125.47;5034333;28;20063;-75
2023/09/28 04:29:13;;;;;;;6.70;5.13;;;;;;;-148.88;100.00;-17125.47;5034294;28;20094;-74
2023/09/28 04:31:40;;;;;;;7.57;4.90;;;;;;;-148.88;100.00;-17125.47;5035796;28;20109;-75
2023/09/28 04:34:07;;;;;;;5.85;4.90;;;;;;;-148.88;100.00;-17125.47;5035539;28;20037;-75
2023/09/28 04:36:32;;;;;;;6.13;5.07;;;;;;;-148.88;100.00;-17125.47;5035635;28;20520;-74
2023/09/28 04:38:58;;;;;;;5.57;4.43;;;;;;;-148.88;100.00;-17125.47;5035419;28;20029;-75
2023/09/28 04:41:23;;;;;;;5.57;4.40;;;;;;;-148.88;100.00;-17125.47;5035714;28;20158;-76
2023/09/28 04:43:48;;;;;;;5.53;4.35;;;;;;;-148.88;100.00;-17125.47;5034162;28;20071;-75
2023/09/28 04:46:14;;;;;;;8.82;4.95;;;;;;;-148.88;100.00;-17125.47;5035846;28;20393;-75
2023/09/28 04:48:39;;;;;;;4.63;3.92;;;;;;;-148.88;100.00;-17125.47;5035773;28;20040;-76
2023/09/28 04:51:05;;;;;;;4.78;3.90;;;;;;;-148.88;100.00;-17125.47;5036039;28;20057;-76
2023/09/28 04:53:30;;;;;;;5.60;4.28;;;;;;;-148.88;100.00;-17125.47;5035489;28;20022;-75
2023/09/28 04:55:56;;;;;;;4.72;4.22;;;;;;;-148.88;100.00;-17125.47;5033970;28;20445;-75
2023/09/28 04:58:22;;;;;;;6.68;4.28;;;;;;;-148.88;100.00;-17125.47;5034045;28;20068;-75
2023/09/28 05:00:47;;;;;;;5.28;3.90;;;;;;;-148.88;100.00;-17125.47;5035461;28;20477;-75
2023/09/28 05:03:13;;;;;;;5.03;3.95;;;;;;;-148.88;100.00;-17125.47;5035362;28;20464;-75
2023/09/28 05:05:39;;;;;;;5.55;4.20;;;;;;;-148.88;100.00;-17125.47;5033877;28;20109;-75
2023/09/28 05:08:05;;;;;;;4.90;3.95;;;;;;;-148.88;100.00;-17125.47;5035144;28;20033;-75
2023/09/28 05:10:30;;;;;;;5.70;3.90;;;;;;;-148.88;100.00;-17125.47;5035092;28;20397;-75
2023/09/28 05:12:55;;;;;;;6.03;4.38;;;;;;;-148.88;100.00;-17125.47;5033666;28;20083;-76
2023/09/28 05:15:21;;;;;;;6.57;4.60;;;;;;;-148.88;100.00;-17125.47;5034812;28;20124;-75
2023/09/28 05:17:48;;;;;;;7.90;4.60;;;;;;;-148.88;100.00;-17125.47;5035027;28;20367;-76
2023/09/28 05:20:13;;;;;;;7.60;4.30;;;;;;;-148.88;100.00;-17125.47;5034921;28;20112;-75
2023/09/28 05:22:38;;;;;;;6.40;4.70;;;;;;;-148.88;100.00;-17125.47;5035211;28;20032;-76
2023/09/28 05:25:06;;;;;;;4.90;4.00;;;;;;;-148.88;100.00;-17125.47;5034970;28;20022;-76
2023/09/28 05:27:33;;;;;;;6.43;4.75;;;;;;;-148.88;100.00;-17125.47;5033334;28;20457;-76
2023/09/28 05:29:58;;;;;;;5.78;4.38;;;;;;;-148.88;100.00;-17125.47;5034655;28;20076;-76
2023/09/28 05:32:24;;;;;;;5.85;4.40;;;;;;;-148.88;100.00;-17125.47;5034708;28;20029;-76
2023/09/28 05:34:49;;;;;;;5.75;4.25;;;;;;;-148.88;100.00;-17125.47;5033323;28;20036;-76
2023/09/28 05:37:14;;;;;;;5.60;4.22;;;;;;;-148.88;100.00;-17125.47;5034628;28;20025;-76
2023/09/28 05:39:40;;;;;;;5.45;4.10;;;;;;;-148.88;100.00;-17125.47;5033110;28;20468;-76
2023/09/28 05:42:06;;;;;;;7.78;4.55;;;;;;;-148.88;100.00;-17125.47;5034483;28;20037;-76
2023/09/28 05:44:32;;;;;;;7.30;4.30;;;;;;;-148.88;100.00;-17125.47;5033152;28;20489;-76
2023/09/28 05:46:57;;;;;;;5.43;4.15;;;;;;;-148.88;100.00;-17125.47;5033021;28;20030;-76
2023/09/28 05:49:23;;;;;;;6.57;4.18;;;;;;;-148.88;100.00;-17125.47;5034307;28;20397;-76
2023/09/28 05:51:48;;;;;;;6.72;4.65;;;;;;;-148.88;100.00;-17125.47;5034565;28;20052;-76
2023/09/28 05:54:14;;;;;;;7.45;5.07;;;;;;;-148.88;100.00;-17125.47;5034373;28;20075;-75
2023/09/28 05:56:39;;;;;;;7.43;4.63;;;;;;;-148.88;100.00;-17125.47;5034228;28;20075;-75
2023/09/28 05:59:04;;;;;;;6.03;4.28;;;;;;;-148.88;100.00;-17125.47;5032837;28;20021;-75
2023/09/28 06:01:30;;;;;;;7.47;4.57;;;;;;;-148.88;100.00;-17125.47;5034297;28;20592;-75
2023/09/28 06:03:56;;;;;;;5.72;4.57;;;;;;;-148.88;100.00;-17125.47;5034180;28;20053;-74
2023/09/28 06:06:22;;;;;;;6.30;4.28;;;;;;;-148.88;100.00;-17125.47;5034146;28;20029;-75
2023/09/28 06:08:47;;;;;;;5.75;4.20;;;;;;;-148.88;100.00;-17125.47;5032567;28;20032;-75
2023/09/28 06:11:14;;;;;;;6.88;4.35;;;;;;;-148.88;100.00;-17125.47;5033991;28;20021;-75
2023/09/28 06:13:44;;;;;;;5.28;4.07;;;;;;;-148.88;100.00;-17125.47;5033872;28;20026;-75
2023/09/28 06:16:13;;;;;;;8.30;4.80;;;;;;;-148.88;100.00;-17125.47;5040457;23;20069;-85
2023/09/28 06:18:40;;;;;;;6.68;4.22;;;;;;;-148.88;100.00;-17125.47;5034400;28;20053;-87
2023/09/28 06:21:06;;;;;;;6.13;4.40;;;;;;;-148.88;100.00;-17125.47;5033758;28;20026;-87
2023/09/28 06:23:34;;;;;;;6.82;4.65;;;;;;;-148.88;100.00;-17125.47;5033230;28;20036;-88
2023/09/28 06:25:59;;;;;;;5.57;4.38;;;;;;;-148.88;100.00;-17125.47;5034799;28;20030;-87
2023/09/28 06:28:25;;;;;;;6.68;4.32;;;;;;;-148.88;100.00;-17125.47;5033218;28;20151;-87
2023/09/28 06:30:54;;;;;;;7.05;4.82;;;;;;;-148.88;100.00;-17125.47;5047113;23;20045;-77
2023/09/28 06:33:24;;;;;;;8.82;5.13;;;;;;;-148.88;100.00;-17125.47;5034721;28;20083;-78
2023/09/28 06:35:50;;;;;;;8.50;4.93;;;;;;;-148.88;100.00;-17125.47;5034807;28;20033;-78
2023/09/28 06:38:16;;;;;;;7.63;4.55;;;;;;;-148.88;100.00;-17125.47;5033010;28;20401;-78
2023/09/28 06:40:45;;;;;;;7.05;4.55;;;;;;;-148.88;100.00;-17125.47;5032929;28;20033;-78
2023/09/28 06:43:11;;;;;;;6.90;4.82;;;;;;;-148.88;100.00;-17125.47;5033836;28;20021;-78
2023/09/28 06:45:36;;;;;;;5.68;4.20;;;;;;;-148.88;100.00;-17125.47;5035107;28;20100;-78
2023/09/28 06:48:01;;;;;;;10.00;4.55;;;;;;;-148.88;100.00;-17125.47;5036277;28;20032;-78
2023/09/28 06:50:29;;;;;;;7.78;4.43;;;;;;;-148.88;100.00;-17125.47;5035824;28;20112;-78
2023/09/28 06:52:54;;;;;;;7.38;4.68;;;;;;;-148.88;100.00;-17125.47;5035854;28;20021;-78
2023/09/28 06:55:23;;;;;;;6.63;5.03;;;;;;;-148.88;100.00;-17125.47;5033648;28;20323;-78
2023/09/28 06:57:49;;;;;;;9.68;4.95;;;;;;;-148.88;100.00;-17125.47;5034095;28;20018;-78
2023/09/28 07:00:16;;;;;;;6.20;4.28;;;;;;;-148.88;100.00;-17125.47;5035500;28;20077;-78
2023/09/28 07:02:47;;;;;;;7.15;4.72;;;;;;;-148.88;100.00;-17125.47;5035843;28;20071;-78
2023/09/28 07:05:16;;;;;;;5.82;4.40;;;;;;;-148.88;100.00;-17125.47;5035877;28;20029;-78
2023/09/28 07:07:45;;;;;;;7.05;4.32;;;;;;;-148.88;100.00;-17125.47;5033929;28;20032;-78
2023/09/28 07:10:14;;;;;;;7.90;4.97;;;;;;;-148.88;100.00;-17125.47;5035352;28;20040;-78
2023/09/28 07:12:40;;;;;;;8.65;4.75;;;;;;;-148.88;100.00;-17125.47;5035680;28;20033;-78
2023/09/28 07:15:06;;;;;;;6.43;5.00;;;;;;;-148.88;100.00;-17125.47;5034059;28;20044;-78
2023/09/28 07:17:33;;;;;;;7.00;4.63;;;;;;;-148.88;100.00;-17125.47;5032542;28;20029;-77
2023/09/28 07:19:59;;;;;;;7.85;4.80;;;;;;;-148.88;100.00;-17125.47;5032185;28;20397;-77
2023/09/28 07:22:24;;;;;;;6.35;4.43;;;;;;;-148.88;100.00;-17125.47;5032710;28;20021;-78
2023/09/28 07:24:50;;;;;;;8.32;4.53;;;;;;;-148.88;100.00;-17125.47;5033039;28;20029;-78
2023/09/28 07:27:16;;;;;;;6.75;4.68;;;;;;;-148.88;100.00;-17125.47;5034684;28;20108;-78
2023/09/28 07:29:41;;;;;;;7.32;4.60;;;;;;;-148.88;100.00;-17125.47;5034580;28;20032;-78
2023/09/28 07:32:08;;;;;;;7.28;5.15;;;;;;;-148.88;100.00;-17125.47;5034575;28;20026;-78
2023/09/28 07:34:33;;;;;;;6.82;4.35;;;;;;;-148.88;100.00;-17125.47;5033597;28;20519;-79
2023/09/28 07:36:59;;;;;;;8.70;4.75;;;;;;;-148.88;100.00;-17125.47;5034000;28;20045;-78
2023/09/28 07:39:24;;;;;;;6.03;4.40;;;;;;;-148.88;100.00;-17125.47;5034416;28;20025;-78
2023/09/28 07:41:51;;;;;;;8.60;4.93;;;;;;;-148.88;100.00;-17125.47;5033752;28;20375;-78
2023/09/28 07:44:19;;;;;;;7.35;4.45;;;;;;;-148.88;100.00;-17125.47;5035223;28;20433;-79
2023/09/28 07:46:45;;;;;;;6.72;4.78;;;;;;;-148.88;100.00;-17125.47;5036938;28;20025;-79
2023/09/28 07:49:12;;;;;;;6.78;4.72;;;;;;;-148.88;100.00;-17125.47;5036259;28;20022;-79
2023/09/28 07:51:39;;;;;;;7.80;4.78;;;;;;;-148.88;100.00;-17125.47;5033461;28;20029;-77
2023/09/28 07:54:05;;;;;;;7.38;4.88;;;;;;;-148.88;100.00;-17125.47;5031994;28;20021;-79
2023/09/28 07:56:30;;;;;;;8.90;5.22;;;;;;;-148.88;100.00;-17125.47;5033661;28;20477;-79
2023/09/28 07:58:57;;;;;;;9.13;5.18;;;;;;;-148.88;100.00;-17125.47;5032241;28;20030;-78
2023/09/28 08:01:23;;;;;;;7.95;5.07;;;;;;;-148.88;100.00;-17125.47;5033991;28;20021;-79
2023/09/28 08:03:48;;;;;;;8.38;5.70;;;;;;;-148.88;100.00;-17125.47;5034987;28;20158;-78
2023/09/28 08:06:14;;;;;;;7.18;4.85;;;;;;;-148.88;100.00;-17125.47;5034587;28;20100;-78
2023/09/28 08:08:39;;;;;;;8.43;5.07;;;;;;;-148.88;100.00;-17125.47;5032944;28;20087;-78
2023/09/28 08:11:05;;;;;;;10.38;5.28;;;;;;;-148.88;100.00;-17125.47;5034368;28;20123;-78
2023/09/28 08:13:30;;;;;;;9.82;5.40;;;;;;;-148.88;100.00;-17125.47;5033906;28;20045;-78
2023/09/28 08:15:55;;;;;;;8.80;5.30;;;;;;;-148.88;100.00;-17125.47;5035425;28;20021;-79
2023/09/28 08:18:21;;;;;;;8.07;5.05;;;;;;;-148.88;100.00;-17125.47;5036815;28;20486;-80
2023/09/28 08:20:47;;;;;;;7.40;5.25;;;;;;;-148.88;100.00;-17125.47;5035287;28;20100;-77
2023/09/28 08:23:12;;;;;;;9.32;5.35;;;;;;;-148.88;100.00;-17125.47;5032685;28;20452;-80
2023/09/28 08:25:37;;;;;;;6.95;5.40;;;;;;;-148.88;100.00;-17125.47;5033802;28;20036;-78
2023/09/28 08:28:03;;;;;;;9.05;5.45;;;;;;;-148.88;100.00;-17125.47;5032447;28;20032;-77
2023/09/28 08:30:28;;;;;;;11.43;5.65;;;;;;;-148.88;100.00;-17125.47;5032282;28;20087;-77
2023/09/28 08:32:54;;;;;;;9.35;5.20;;;;;;;-148.88;100.00;-17125.47;5032637;28;20025;-78
2023/09/28 08:35:20;;;;;;;8.73;5.68;;;;;;;-148.88;100.00;-17125.47;5032809;28;20538;-77
2023/09/28 08:37:45;;;;;;;8.43;5.63;;;;;;;-148.88;100.00;-17125.47;5031135;28;20018;-77
2023/09/28 08:40:11;;;;;;;8.15;5.70;;;;;;;-148.88;100.00;-17125.47;5032646;28;20044;-78
2023/09/28 08:42:41;;;;;;;7.88;5.75;;;;;;;-148.88;100.00;-17125.47;5032882;28;20422;-78
2023/09/28 08:45:08;;;;;;;8.25;5.38;;;;;;;-148.88;100.00;-17125.47;5031010;28;20052;-78
2023/09/28 08:47:38;;;;;;;8.38;6.05;;;;;;;-148.88;100.00;-17125.47;5031021;28;20053;-78
2023/09/28 08:50:04;;;;;;;9.23;6.22;;;;;;;-148.88;100.00;-17125.47;5032374;28;20028;-77
2023/09/28 08:52:30;;;;;;;13.73;6.93;;;;;;;-148.88;100.00;-17125.47;5032912;28;20025;-78
2023/09/28 08:54:57;;;;;;;13.10;7.00;;;;;;;-148.88;100.00;-17125.47;5031341;28;20108;-78
2023/09/28 08:57:22;;;;;;;12.18;6.35;;;;;;;-148.88;100.00;-17125.47;5032596;28;20104;-77
2023/09/28 08:59:48;;;;;;;10.15;6.60;;;;;;;-148.88;100.00;-17125.47;5033060;28;20052;-78
2023/09/28 09:02:15;;;;;;;9.00;5.88;;;;;;;-148.88;100.00;-17125.47;5030953;28;20414;-78
2023/09/28 09:04:42;;;;;;;10.18;6.47;;;;;;;-148.88;100.00;-17125.47;5032710;28;20029;-77
2023/09/28 09:07:08;;;;;;;9.00;6.75;;;;;;;-148.88;100.00;-17125.47;5035851;28;20025;-77
2023/09/28 09:09:39;;;;;;;11.50;6.72;;;;;;;-148.88;100.00;-17125.47;5035784;28;20075;-77
2023/09/28 09:12:09;;;;;;;8.75;6.72;;;;;;;-148.88;100.00;-17125.47;5034294;28;20021;-77
2023/09/28 09:14:35;;;;;;;10.13;6.38;;;;;;;-148.88;100.00;-17125.47;5034427;28;20049;-77
2023/09/28 09:17:00;;;;;;;10.15;5.95;;;;;;;-148.88;100.00;-17125.47;5036132;28;20083;-77
2023/09/28 09:19:30;;;;;;;8.13;5.38;;;;;;;-148.88;100.00;-17125.47;5034992;28;20030;-78
2023/09/28 09:21:57;;;;;;;10.65;6.60;;;;;;;-148.88;100.00;-17125.47;5034455;28;20025;-78
2023/09/28 09:24:23;;;;;;;9.40;6.05;;;;;;;-148.88;99.55;-17125.47;5035967;28;20026;-78
2023/09/28 09:26:52;;;;;;;11.77;6.30;;;;;;;-148.88;100.00;-17125.47;5034629;28;20091;-78
2023/09/28 09:29:18;;;;;;;8.10;6.10;;;;;;;-148.88;100.00;-17125.47;5035496;28;20021;-78
2023/09/28 09:31:47;;;;;;;11.27;6.60;;;;;;;-148.88;100.00;-17125.47;5037055;28;20037;-78
2023/09/28 09:34:20;;;;;;;9.65;6.05;;;;;;;-148.88;100.00;-17125.47;5036976;28;20024;-78
2023/09/28 09:36:56;;;;;;;10.15;5.90;;;;;;;-148.88;97.30;-17125.47;5037671;28;20021;-78
2023/09/28 09:39:27;;;;;;;9.27;5.35;;;;;;;-148.88;98.46;-17125.47;5037436;28;20029;-78
2023/09/28 09:41:54;;;;;;;12.38;5.93;;;;;;;-148.88;96.94;-17125.47;5034822;28;20559;-78
2023/09/28 09:44:21;;;;;;;8.52;5.63;;;;;;;-148.88;98.14;-17125.47;5033583;28;20028;-78
2023/09/28 09:46:48;;;;;;;7.63;5.13;;;;;;;-148.88;95.36;-17125.47;5034789;28;20029;-78
2023/09/28 09:49:18;;;;;;;11.90;5.10;;;;;;;-148.88;95.97;-17125.47;5034799;28;20030;-78
2023/09/28 09:51:48;;;;;;;9.23;4.57;;;;;;;-148.88;94.71;-17125.47;5035120;28;20030;-78
2023/09/28 09:54:14;;;;;;;10.30;4.70;;;;;;;-148.88;94.29;-17125.47;5036260;28;20018;-78
2023/09/28 09:56:44;;;;;;;8.23;3.80;;;;;;;-148.88;92.47;-17125.47;5037627;28;20401;-78
2023/09/28 09:59:13;;;;;;;8.68;4.07;;;;;;;-148.88;92.43;-17125.47;5037156;28;20022;-78
2023/09/28 10:01:40;;;;;;;6.90;4.03;;;;;;;-148.88;90.53;-17125.47;5035500;28;20029;-78
2023/09/28 10:04:12;;;;;;;7.07;3.75;;;;;;;-148.88;90.70;-17125.47;5037138;28;20104;-78
2023/09/28 10:06:39;;;;;;;7.60;3.63;;;;;;;-148.88;91.05;-17125.47;5036618;28;20438;-78
2023/09/28 10:09:10;;;;;;;8.48;4.03;;;;;;;-148.88;89.93;-17125.47;5037218;28;20029;-78
2023/09/28 10:11:39;;;;;;;8.10;4.00;;;;;;;-148.88;88.26;-17125.47;5037629;28;20022;-78
2023/09/28 10:14:05;;;;;;;8.43;4.13;;;;;;;-148.88;86.80;-17125.47;5037041;28;20445;-78
2023/09/28 10:16:34;;;;;;;7.95;3.80;;;;;;;-148.88;88.12;-17125.47;5034978;28;20498;-78
2023/09/28 10:19:00;;;;;;;10.25;4.47;;;;;;;-148.88;89.29;-17125.47;5033630;28;20450;-78
2023/09/28 10:21:25;;;;;;;8.00;4.40;;;;;;;-148.88;89.75;-17125.47;5033963;28;20099;-78
2023/09/28 10:23:55;;;;;;;9.07;4.03;;;;;;;-148.88;93.95;-17125.47;5034127;28;20440;-78
2023/09/28 10:26:22;;;;;;;7.93;3.75;;;;;;;-148.88;94.31;-17125.47;5032975;28;20064;-78
2023/09/28 10:29:05;;;;;;;7.90;4.03;;;;;;;-148.88;96.30;-17125.47;5033994;28;20124;-78
2023/09/28 10:31:32;;;;;;;9.13;4.40;;;;;;;-148.88;93.19;-17125.47;4980644;28;1597418;-78
2023/09/28 10:34:00;;;;;;;9.98;3.95;;;;;;;-148.88;92.99;-17125.47;5037775;28;20405;-78
2023/09/28 10:36:26;;;;;;;7.20;3.88;;;;;;;-148.88;94.06;-17125.47;5037312;28;20033;-78
2023/09/28 10:39:10;;;;;;;6.53;3.97;;;;;;;-148.88;90.72;-17125.47;5037325;28;20397;-78
2023/09/28 10:41:37;;;;;;;10.85;3.90;;;;;;;-148.88;92.73;-17125.47;5038286;28;20021;-79
2023/09/28 10:44:14;;;;;;;8.15;3.75;;;;;;;-148.88;93.41;-17125.47;5038372;28;20504;-78
2023/09/28 10:46:41;;;;;;;7.57;3.90;;;;;;;-148.88;91.24;-17125.47;5037262;28;20032;-78
2023/09/28 10:49:07;;;;;;;8.68;4.47;;;;;;;-148.88;90.88;-17125.47;5039179;28;20048;-78
2023/09/28 10:51:32;;;;;;;6.53;3.65;;;;;;;-148.88;92.96;-17125.47;5037536;28;20064;-78
2023/09/28 10:53:57;;;;;;;10.13;3.80;;;;;;;-148.88;91.21;-17125.47;5035392;28;20032;-78
2023/09/28 10:56:24;;;;;;;7.78;3.85;;;;;;;-148.88;91.32;-17125.47;5033475;28;20029;-78
2023/09/28 10:58:50;;;;;;;9.48;3.92;;;;;;;-148.88;89.19;-17125.47;5035508;28;20021;-78